Time;durP1;ratioP1;P1;durP2;ratioP2;P2;SDS_P1;SDS_P2;PMS_P1;PMS_P2;Temp;Humidity;BMP_temperature;BMP_pressure;BME280_temperature;BME280_humidity;BME280_pressure;Samples;Min_cycle;Max_cycle;Signal;HPM_P1;HPM_P2
2023/08/25 00:00:38;;;;;;;9.73;8.18;;;19.50;99.90;;;;;;5054781;28;20059;-77
2023/08/25 00:03:05;;;;;;;10.55;8.05;;;19.50;99.90;;;;;;5020707;28;20102;-78
2023/08/25 00:05:39;;;;;;;10.48;8.43;;;19.50;99.90;;;;;;5054842;28;20098;-76
2023/08/25 00:08:05;;;;;;;9.00;7.80;;;19.50;99.90;;;;;;5055133;28;20044;-78
2023/08/25 00:10:32;;;;;;;10.68;7.32;;;19.40;99.90;;;;;;5055098;28;20044;-79
2023/08/25 00:12:57;;;;;;;9.07;7.53;;;19.40;99.90;;;;;;5054495;28;20041;-78
2023/08/25 00:15:23;;;;;;;11.35;8.02;;;19.30;99.90;;;;;;5054438;28;20455;-72
2023/08/25 00:17:50;;;;;;;10.95;8.32;;;19.30;99.90;;;;;;5054973;28;20055;-78
2023/08/25 00:20:16;;;;;;;11.30;8.00;;;19.30;99.90;;;;;;5054397;28;20052;-79
2023/08/25 00:22:42;;;;;;;10.60;7.93;;;19.30;99.90;;;;;;5054327;28;20052;-79
2023/08/25 00:25:08;;;;;;;8.50;7.28;;;19.20;99.90;;;;;;5037050;28;20052;-79
2023/08/25 00:27:34;;;;;;;10.77;8.27;;;19.20;99.90;;;;;;5054237;28;20102;-78
2023/08/25 00:30:00;;;;;;;9.90;8.90;;;19.10;99.90;;;;;;5054512;28;20132;-78
2023/08/25 00:32:26;;;;;;;11.02;9.15;;;19.10;99.90;;;;;;5053981;28;20615;-78
2023/08/25 00:34:53;;;;;;;11.25;8.80;;;19.00;99.90;;;;;;5054085;28;20052;-77
2023/08/25 00:37:18;;;;;;;10.82;8.27;;;19.10;99.90;;;;;;5053681;28;20089;-78
2023/08/25 00:39:45;;;;;;;11.98;8.55;;;19.10;99.90;;;;;;5054064;28;20044;-79
2023/08/25 00:42:10;;;;;;;12.07;9.02;;;19.10;99.90;;;;;;5036456;28;20057;-78
2023/08/25 00:44:36;;;;;;;13.07;9.25;;;19.00;99.90;;;;;;5053896;28;20059;-78
2023/08/25 00:47:03;;;;;;;11.20;8.75;;;19.00;99.90;;;;;;5054210;28;20056;-78
2023/08/25 00:49:28;;;;;;;9.88;8.70;;;19.00;99.90;;;;;;5036320;28;20088;-78
2023/08/25 00:51:54;;;;;;;11.13;9.10;;;19.00;99.90;;;;;;5019588;28;20088;-78
2023/08/25 00:54:23;;;;;;;11.57;9.27;;;19.00;99.90;;;;;;5054651;28;20048;-78
2023/08/25 00:56:50;;;;;;;13.02;9.38;;;19.00;99.90;;;;;;5053711;28;20099;-79
2023/08/25 00:59:17;;;;;;;13.85;9.85;;;19.00;99.90;;;;;;5053721;28;20041;-79
2023/08/25 01:01:44;;;;;;;11.30;9.23;;;19.00;99.90;;;;;;5036171;28;20048;-79
2023/08/25 01:04:10;;;;;;;12.77;9.60;;;19.10;99.90;;;;;;5053695;28;20056;-79
2023/08/25 01:06:37;;;;;;;11.63;9.38;;;19.10;99.90;;;;;;5053651;28;20547;-79
2023/08/25 01:09:04;;;;;;;13.75;9.85;;;19.10;99.90;;;;;;5054134;28;20053;-78
2023/08/25 01:11:38;;;;;;;12.25;9.82;;;19.10;99.90;;;;;;5054086;28;20374;-78
2023/08/25 01:14:36;;;;;;;11.73;9.52;;;19.20;99.90;;;;;;5053599;28;20044;-79
2023/08/25 01:17:22;;;;;;;14.18;10.25;;;19.20;99.90;;;;;;5053517;28;20044;-79
2023/08/25 01:19:56;;;;;;;12.73;9.82;;;19.20;99.90;;;;;;5053594;28;20048;-78
2023/08/25 01:22:28;;;;;;;12.07;8.88;;;19.20;99.90;;;;;;5053566;28;20056;-78
2023/08/25 01:24:59;;;;;;;11.05;9.18;;;19.30;99.90;;;;;;5053568;28;20037;-78
2023/08/25 01:27:25;;;;;;;11.95;9.45;;;19.20;99.90;;;;;;5053986;28;20368;-78
2023/08/25 01:29:53;;;;;;;13.27;10.02;;;19.20;99.90;;;;;;5053462;28;20056;-79
2023/08/25 01:32:19;;;;;;;12.63;9.95;;;19.30;99.90;;;;;;5053260;28;20092;-79
2023/08/25 01:34:46;;;;;;;13.05;9.38;;;19.30;99.90;;;;;;5053362;28;20131;-79
2023/08/25 01:37:26;;;;;;;13.70;10.23;;;19.30;99.90;;;;;;5053226;28;20091;-78
2023/08/25 01:40:05;;;;;;;11.80;9.43;;;19.20;99.90;;;;;;5053569;28;20040;-79
2023/08/25 01:42:33;;;;;;;12.60;10.95;;;19.20;99.90;;;;;;5053380;28;20128;-80
2023/08/25 01:45:00;;;;;;;12.38;10.10;;;19.20;99.90;;;;;;5053167;28;20045;-79
2023/08/25 01:47:28;;;;;;;11.68;9.07;;;19.20;99.90;;;;;;5053251;28;20068;-79
2023/08/25 01:49:55;;;;;;;12.27;9.98;;;19.30;99.90;;;;;;5056827;28;20045;-80
2023/08/25 01:52:22;;;;;;;14.25;10.20;;;19.30;99.90;;;;;;5056785;28;20505;-80
2023/08/25 01:54:52;;;;;;;12.60;10.50;;;19.30;99.90;;;;;;5057205;28;20040;-80
2023/08/25 01:57:18;;;;;;;13.38;9.68;;;19.30;99.90;;;;;;5057132;28;20087;-80
2023/08/25 01:59:43;;;;;;;15.80;10.38;;;19.30;99.90;;;;;;5057594;28;20081;-79
2023/08/25 02:02:09;;;;;;;13.50;11.00;;;19.30;99.90;;;;;;5057015;28;20041;-78
2023/08/25 02:04:35;;;;;;;13.32;10.65;;;19.30;99.90;;;;;;5056938;28;20049;-79
2023/08/25 02:07:02;;;;;;;13.25;10.85;;;19.30;99.90;;;;;;5056878;28;20041;-78
2023/08/25 02:09:28;;;;;;;15.02;11.38;;;19.30;99.90;;;;;;5056920;28;20132;-80
2023/08/25 02:11:53;;;;;;;15.35;10.70;;;19.20;99.90;;;;;;5057608;28;20128;-79
2023/08/25 02:14:19;;;;;;;14.98;11.82;;;19.30;99.90;;;;;;5057022;28;20221;-77
2023/08/25 02:16:45;;;;;;;15.50;11.57;;;19.20;99.90;;;;;;5056302;28;20057;-75
2023/08/25 02:19:10;;;;;;;15.73;11.45;;;19.20;99.90;;;;;;5056748;28;20045;-79
2023/08/25 02:21:36;;;;;;;13.98;11.10;;;19.20;99.90;;;;;;5056622;28;20043;-78
2023/08/25 02:24:02;;;;;;;16.10;12.13;;;19.20;99.90;;;;;;5055523;28;20126;-79
2023/08/25 02:26:27;;;;;;;18.20;12.18;;;19.20;99.90;;;;;;5056576;28;20045;-79
2023/08/25 02:28:53;;;;;;;14.57;11.93;;;19.20;99.90;;;;;;5056770;28;20549;-79
2023/08/25 02:31:19;;;;;;;15.10;11.35;;;19.20;99.90;;;;;;5056667;28;20458;-78
2023/08/25 02:33:45;;;;;;;13.13;11.18;;;19.20;99.90;;;;;;5056052;28;20064;-78
2023/08/25 02:36:10;;;;;;;16.27;11.75;;;19.10;99.90;;;;;;5056436;28;20161;-78
2023/08/25 02:38:36;;;;;;;17.25;12.75;;;19.20;99.90;;;;;;5056669;28;20657;-79
2023/08/25 02:41:02;;;;;;;18.08;13.23;;;19.10;99.90;;;;;;5056296;28;20482;-78
2023/08/25 02:43:27;;;;;;;15.77;12.07;;;19.10;99.90;;;;;;5056295;28;20063;-79
2023/08/25 02:45:53;;;;;;;16.65;12.77;;;19.10;99.90;;;;;;5056741;28;20057;-78
2023/08/25 02:48:19;;;;;;;16.35;12.73;;;19.00;99.90;;;;;;5056667;28;20037;-79
2023/08/25 02:50:44;;;;;;;15.93;12.45;;;19.00;99.90;;;;;;5038248;28;20075;-78
2023/08/25 02:53:10;;;;;;;15.48;12.02;;;18.90;99.90;;;;;;5056503;28;20081;-78
2023/08/25 02:55:35;;;;;;;16.30;11.48;;;18.80;99.90;;;;;;5056581;28;20044;-75
2023/08/25 02:58:01;;;;;;;15.18;11.73;;;18.80;99.90;;;;;;5055829;28;20048;-78
2023/08/25 03:00:27;;;;;;;16.90;12.60;;;18.70;99.90;;;;;;5055560;28;20037;-77
2023/08/25 03:02:53;;;;;;;17.38;12.23;;;18.60;99.90;;;;;;5054966;28;20049;-79
2023/08/25 03:05:21;;;;;;;17.13;13.40;;;18.60;99.90;;;;;;5055869;28;20383;-78
2023/08/25 03:07:50;;;;;;;16.50;12.10;;;18.60;99.90;;;;;;5056381;28;20371;-77
2023/08/25 03:10:15;;;;;;;19.38;13.02;;;18.60;99.90;;;;;;5055840;28;20061;-79
2023/08/25 03:12:42;;;;;;;16.95;12.38;;;18.60;99.90;;;;;;5055680;28;20363;-78
2023/08/25 03:15:08;;;;;;;17.63;13.65;;;18.50;99.90;;;;;;5055722;28;20098;-79
2023/08/25 03:17:34;;;;;;;19.55;13.32;;;18.40;99.90;;;;;;5056465;28;20053;-77
2023/08/25 03:20:00;;;;;;;16.45;12.57;;;18.40;99.90;;;;;;5055546;28;20493;-79
2023/08/25 03:22:26;;;;;;;18.15;13.70;;;18.40;99.90;;;;;;5055494;28;20045;-78
2023/08/25 03:24:52;;;;;;;17.38;13.18;;;18.30;99.90;;;;;;5055508;28;20132;-78
2023/08/25 03:27:17;;;;;;;17.20;13.02;;;18.30;99.90;;;;;;5056122;28;20045;-79
2023/08/25 03:29:43;;;;;;;19.55;13.30;;;18.30;99.90;;;;;;5055288;28;20491;-78
2023/08/25 03:32:09;;;;;;;18.92;13.30;;;18.20;99.90;;;;;;5054892;28;20063;-78
2023/08/25 03:34:34;;;;;;;16.42;12.02;;;18.20;99.90;;;;;;5055307;28;20049;-78
2023/08/25 03:37:02;;;;;;;20.08;13.65;;;18.20;99.90;;;;;;5056120;28;20462;-79
2023/08/25 03:39:27;;;;;;;19.50;13.50;;;18.20;99.90;;;;;;5055233;28;20091;-79
2023/08/25 03:41:53;;;;;;;18.60;13.73;;;18.10;99.90;;;;;;5055263;28;20081;-79
2023/08/25 03:44:19;;;;;;;20.42;13.73;;;18.10;99.90;;;;;;5037288;28;20048;-79
2023/08/25 03:46:45;;;;;;;20.13;14.23;;;18.10;99.90;;;;;;5055075;28;20045;-78
2023/08/25 03:49:11;;;;;;;19.65;13.82;;;18.10;99.90;;;;;;5055023;28;20049;-78
2023/08/25 03:51:37;;;;;;;19.00;14.40;;;18.10;99.90;;;;;;5055434;28;20114;-79
2023/08/25 03:54:02;;;;;;;21.08;14.18;;;18.10;99.90;;;;;;5055166;28;20051;-78
2023/08/25 03:56:28;;;;;;;21.27;14.07;;;18.00;99.90;;;;;;5055130;28;20497;-79
2023/08/25 03:58:54;;;;;;;20.17;14.65;;;18.00;99.90;;;;;;5054769;28;20048;-79
2023/08/25 04:01:19;;;;;;;21.27;14.20;;;17.90;99.90;;;;;;5054807;28;20040;-79
2023/08/25 04:03:45;;;;;;;23.10;15.18;;;18.00;99.90;;;;;;5054771;28;20052;-79
2023/08/25 04:06:10;;;;;;;22.88;16.02;;;18.00;99.90;;;;;;5054692;28;20048;-78
2023/08/25 04:08:36;;;;;;;24.40;15.70;;;18.00;99.90;;;;;;5054517;28;20052;-79
2023/08/25 04:11:02;;;;;;;24.98;16.67;;;18.00;99.90;;;;;;5053781;28;20045;-79
2023/08/25 04:13:28;;;;;;;23.15;15.73;;;18.00;99.90;;;;;;5054532;28;20049;-78
2023/08/25 04:15:58;;;;;;;27.02;17.23;;;18.00;99.90;;;;;;5054450;28;20095;-79
2023/08/25 04:18:25;;;;;;;24.80;16.33;;;18.10;99.90;;;;;;5054482;28;20545;-79
2023/08/25 04:20:51;;;;;;;26.42;18.33;;;18.10;99.90;;;;;;5054457;28;20052;-79
2023/08/25 04:23:16;;;;;;;28.13;17.95;;;18.10;99.90;;;;;;5054323;28;20080;-78
2023/08/25 04:25:42;;;;;;;25.75;17.38;;;18.10;99.90;;;;;;5054344;28;20517;-79
2023/08/25 04:28:08;;;;;;;27.80;17.45;;;18.10;99.90;;;;;;5054220;28;20067;-78
2023/08/25 04:30:34;;;;;;;28.10;18.05;;;18.20;99.90;;;;;;5055071;28;20052;-80
2023/08/25 04:33:00;;;;;;;28.13;18.05;;;18.10;99.90;;;;;;5054311;28;20068;-77
2023/08/25 04:35:26;;;;;;;31.08;19.88;;;18.20;99.90;;;;;;5053665;28;20060;-79
2023/08/25 04:37:52;;;;;;;33.08;19.08;;;18.20;99.90;;;;;;5054260;28;20056;-78
2023/08/25 04:40:18;;;;;;;29.60;18.85;;;18.20;99.90;;;;;;5053428;28;20468;-79
2023/08/25 04:42:43;;;;;;;31.58;19.63;;;18.30;99.90;;;;;;5053865;28;20045;-78
2023/08/25 04:45:10;;;;;;;31.85;19.67;;;18.30;99.90;;;;;;5053789;28;20556;-76
2023/08/25 04:47:37;;;;;;;34.40;20.75;;;18.30;99.90;;;;;;5053637;28;20049;-78
2023/08/25 04:50:04;;;;;;;34.30;21.15;;;18.30;99.90;;;;;;5053892;28;20049;-78
2023/08/25 04:52:30;;;;;;;32.40;20.17;;;18.30;99.90;;;;;;5054133;28;20049;-79
2023/08/25 04:54:56;;;;;;;33.28;20.10;;;18.40;99.90;;;;;;5038236;28;20090;-78
2023/08/25 04:57:22;;;;;;;35.35;21.00;;;18.40;99.90;;;;;;5056349;28;20041;-79
2023/08/25 04:59:48;;;;;;;34.38;19.90;;;18.40;99.90;;;;;;5053791;28;20102;-78
2023/08/25 05:02:14;;;;;;;36.75;21.88;;;18.30;99.90;;;;;;5053782;28;20466;-78
2023/08/25 05:04:40;;;;;;;37.13;20.88;;;18.40;99.90;;;;;;5053664;28;20063;-78
2023/08/25 05:07:06;;;;;;;32.28;20.40;;;18.30;99.90;;;;;;5053648;28;20538;-77
2023/08/25 05:09:32;;;;;;;34.30;20.20;;;18.30;99.90;;;;;;5053632;28;20045;-78
2023/08/25 05:11:57;;;;;;;33.05;20.80;;;18.30;99.90;;;;;;5053269;28;20132;-78
2023/08/25 05:14:23;;;;;;;32.72;20.35;;;18.30;99.90;;;;;;5053833;28;20045;-78
2023/08/25 05:16:49;;;;;;;32.10;20.50;;;18.30;99.90;;;;;;5053902;28;20044;-77
2023/08/25 05:19:14;;;;;;;33.47;19.90;;;18.30;99.90;;;;;;5036858;28;20454;-77
2023/08/25 05:21:40;;;;;;;34.42;20.52;;;18.30;99.90;;;;;;5053411;28;20084;-78
2023/08/25 05:24:20;;;;;;;28.30;18.35;;;18.40;99.90;;;;;;5053424;28;20045;-79
2023/08/25 05:26:51;;;;;;;33.22;20.30;;;18.40;99.90;;;;;;5053520;28;20044;-79
2023/08/25 05:29:23;;;;;;;35.97;20.98;;;18.40;99.90;;;;;;5053779;28;20049;-79
2023/08/25 05:31:50;;;;;;;33.30;20.50;;;18.40;99.90;;;;;;5051982;28;20102;-78
2023/08/25 05:34:15;;;;;;;30.83;20.70;;;18.40;99.90;;;;;;5053410;28;20049;-78
2023/08/25 05:36:41;;;;;;;34.00;21.55;;;18.50;99.90;;;;;;5036466;28;20067;-79
2023/08/25 05:39:07;;;;;;;31.98;20.02;;;18.50;99.90;;;;;;5053905;28;20048;-79
2023/08/25 05:41:33;;;;;;;31.60;20.77;;;18.50;99.90;;;;;;5053342;28;20033;-79
2023/08/25 05:44:03;;;;;;;32.10;19.83;;;18.50;99.90;;;;;;5053306;28;20122;-80
2023/08/25 05:46:30;;;;;;;33.53;21.30;;;18.50;99.90;;;;;;5053261;28;20049;-78
2023/08/25 05:48:57;;;;;;;33.38;20.90;;;18.50;99.90;;;;;;5053257;28;20060;-79
2023/08/25 05:51:23;;;;;;;31.83;20.92;;;18.60;99.90;;;;;;5053053;28;20091;-79
2023/08/25 05:53:49;;;;;;;35.30;22.15;;;18.60;99.90;;;;;;5053209;28;20041;-79
2023/08/25 05:56:15;;;;;;;33.65;19.77;;;18.60;99.90;;;;;;5051972;28;20473;-78
2023/08/25 05:58:43;;;;;;;32.72;20.65;;;18.60;99.90;;;;;;5053114;28;20052;-79
2023/08/25 06:01:09;;;;;;;33.47;20.02;;;18.60;99.90;;;;;;5053010;28;20051;-77
2023/08/25 06:03:35;;;;;;;32.75;20.00;;;18.70;99.90;;;;;;5051881;28;20049;-79
2023/08/25 06:06:01;;;;;;;33.63;20.38;;;18.70;99.90;;;;;;5053146;28;20386;-78
2023/08/25 06:08:27;;;;;;;32.83;20.15;;;18.70;99.90;;;;;;5053065;28;20044;-79
2023/08/25 06:10:52;;;;;;;35.83;20.50;;;18.70;99.90;;;;;;5052962;28;20084;-67
2023/08/25 06:13:19;;;;;;;31.20;19.45;;;18.70;99.90;;;;;;5052953;28;20138;-67
2023/08/25 06:15:45;;;;;;;31.13;19.48;;;18.70;99.90;;;;;;5052980;28;20048;-67
2023/08/25 06:18:11;;;;;;;30.75;19.40;;;18.80;99.90;;;;;;5053798;28;20045;-67
2023/08/25 06:20:40;;;;;;;34.22;20.45;;;18.80;99.90;;;;;;5053023;28;20167;-67
2023/08/25 06:23:06;;;;;;;31.40;20.02;;;18.90;99.90;;;;;;5052810;28;20128;-68
2023/08/25 06:25:32;;;;;;;29.80;18.77;;;18.90;99.90;;;;;;5051926;28;20203;-68
2023/08/25 06:27:59;;;;;;;34.08;20.63;;;18.90;99.90;;;;;;5053308;28;20041;-68
2023/08/25 06:30:26;;;;;;;33.53;20.00;;;18.90;99.90;;;;;;5052859;28;20052;-67
2023/08/25 06:32:52;;;;;;;32.85;19.80;;;18.90;99.90;;;;;;5052797;28;20053;-68
2023/08/25 06:35:18;;;;;;;29.05;19.23;;;18.90;99.90;;;;;;5055071;28;20423;-68
2023/08/25 06:37:44;;;;;;;33.30;20.38;;;19.00;99.90;;;;;;5038641;28;20048;-67
2023/08/25 06:40:10;;;;;;;29.80;18.60;;;19.20;99.90;;;;;;5056319;28;20063;-67
2023/08/25 06:42:39;;;;;;;31.05;19.98;;;19.30;99.90;;;;;;5038689;28;20607;-67
2023/08/25 06:45:05;;;;;;;27.85;19.30;;;19.30;99.90;;;;;;5056251;28;20096;-67
2023/08/25 06:47:31;;;;;;;28.95;19.30;;;19.40;99.90;;;;;;5038640;28;20041;-67
2023/08/25 06:49:57;;;;;;;30.08;19.63;;;19.40;99.90;;;;;;5056904;28;20045;-67
2023/08/25 06:52:23;;;;;;;27.90;18.38;;;19.50;99.90;;;;;;5056017;28;20053;-67
2023/08/25 06:54:49;;;;;;;29.55;19.60;;;19.50;99.90;;;;;;5056010;28;20132;-67
2023/08/25 06:57:14;;;;;;;27.63;18.60;;;19.50;99.90;;;;;;5055018;28;20132;-67
2023/08/25 06:59:40;;;;;;;31.13;19.70;;;19.50;99.90;;;;;;5055905;28;20040;-67
2023/08/25 07:02:07;;;;;;;27.90;18.58;;;19.50;99.90;;;;;;5055645;28;20099;-68
2023/08/25 07:04:33;;;;;;;29.75;18.75;;;19.60;99.90;;;;;;5038344;28;20063;-68
2023/08/25 07:06:59;;;;;;;26.60;18.67;;;19.70;99.90;;;;;;5055796;28;20076;-68
2023/08/25 07:09:25;;;;;;;28.10;19.02;;;19.80;99.90;;;;;;5055828;28;20390;-69
2023/08/25 07:11:51;;;;;;;28.05;18.60;;;19.90;99.90;;;;;;5055523;28;20060;-68
2023/08/25 07:14:17;;;;;;;27.48;18.88;;;19.90;99.90;;;;;;5054806;28;20044;-66
2023/08/25 07:16:43;;;;;;;30.33;18.17;;;20.00;99.90;;;;;;5055645;28;20134;-67
2023/08/25 07:19:09;;;;;;;29.70;19.05;;;20.00;99.90;;;;;;5056235;28;20045;-67
2023/08/25 07:21:35;;;;;;;25.77;18.80;;;20.10;99.90;;;;;;5055506;28;20048;-68
2023/08/25 07:24:01;;;;;;;27.77;18.48;;;20.10;99.90;;;;;;5055419;28;20048;-68
2023/08/25 07:26:27;;;;;;;27.55;17.83;;;20.20;99.90;;;;;;5054863;28;20497;-67
2023/08/25 07:28:53;;;;;;;27.88;18.95;;;20.20;99.90;;;;;;5056005;28;20174;-67
2023/08/25 07:31:19;;;;;;;30.30;19.33;;;20.20;99.90;;;;;;5055963;28;20354;-67
2023/08/25 07:33:45;;;;;;;26.77;17.52;;;20.30;99.90;;;;;;5055222;28;20061;-67
2023/08/25 07:36:10;;;;;;;24.70;18.80;;;20.40;99.90;;;;;;5055684;28;20049;-66
2023/08/25 07:38:36;;;;;;;27.48;18.33;;;20.40;99.90;;;;;;5055646;28;20051;-66
2023/08/25 07:41:02;;;;;;;28.73;18.95;;;20.40;99.90;;;;;;5055087;28;20040;-67
2023/08/25 07:43:28;;;;;;;27.48;18.30;;;20.50;99.90;;;;;;5055070;28;20051;-66
2023/08/25 07:45:54;;;;;;;26.75;18.85;;;20.50;99.90;;;;;;5053840;28;20049;-67
2023/08/25 07:48:21;;;;;;;26.00;18.08;;;20.60;99.90;;;;;;5037449;28;20402;-67
2023/08/25 07:50:48;;;;;;;25.13;18.23;;;20.60;99.90;;;;;;5053749;28;20045;-67
2023/08/25 07:53:14;;;;;;;26.45;18.67;;;20.70;99.90;;;;;;5055222;28;20049;-68
2023/08/25 07:55:40;;;;;;;24.60;15.60;;;20.70;99.90;;;;;;5055499;28;20045;-68
2023/08/25 07:58:07;;;;;;;25.40;17.10;;;20.60;99.90;;;;;;5053725;28;20454;-69
2023/08/25 08:00:32;;;;;;;26.00;17.17;;;20.70;99.90;;;;;;5037039;28;20060;-68
2023/08/25 08:02:58;;;;;;;23.90;16.40;;;20.60;99.90;;;;;;5054492;28;20063;-67
2023/08/25 08:05:24;;;;;;;23.80;16.33;;;20.60;99.90;;;;;;5055017;28;20411;-67
2023/08/25 08:07:50;;;;;;;24.83;17.17;;;20.60;99.90;;;;;;5053853;28;20053;-66
2023/08/25 08:10:17;;;;;;;27.48;17.63;;;20.50;99.90;;;;;;5054465;28;20056;-66
2023/08/25 08:12:43;;;;;;;27.00;17.30;;;20.60;99.90;;;;;;5036656;28;20056;-66
2023/08/25 08:15:10;;;;;;;26.73;18.63;;;20.60;99.90;;;;;;5054416;28;20474;-67
2023/08/25 08:17:36;;;;;;;23.58;16.98;;;20.70;99.90;;;;;;5054275;28;20044;-66
2023/08/25 08:20:05;;;;;;;22.15;16.60;;;20.80;99.90;;;;;;5054756;28;20048;-69
2023/08/25 08:22:31;;;;;;;23.27;16.65;;;20.80;99.90;;;;;;5054126;28;20068;-67
2023/08/25 08:24:57;;;;;;;22.27;16.88;;;20.80;99.90;;;;;;5054205;28;20088;-67
2023/08/25 08:27:22;;;;;;;22.92;15.85;;;20.80;99.90;;;;;;5054036;28;20084;-67
2023/08/25 08:29:48;;;;;;;21.50;15.27;;;20.80;99.90;;;;;;5054743;28;20041;-66
2023/08/25 08:32:14;;;;;;;22.88;16.35;;;20.80;99.90;;;;;;5054129;28;20506;-66
2023/08/25 08:34:40;;;;;;;22.48;15.95;;;20.80;99.90;;;;;;5054371;28;20056;-66
2023/08/25 08:37:06;;;;;;;25.65;16.98;;;20.80;99.90;;;;;;5054126;28;20390;-67
2023/08/25 08:39:38;;;;;;;24.10;16.88;;;20.90;99.90;;;;;;5053990;28;20037;-68
2023/08/25 08:42:07;;;;;;;23.92;15.55;;;20.80;99.90;;;;;;5054032;28;20040;-67
2023/08/25 08:44:36;;;;;;;24.67;16.42;;;20.80;99.90;;;;;;5053957;28;20171;-67
2023/08/25 08:47:03;;;;;;;23.45;15.77;;;20.80;99.90;;;;;;5053951;28;20084;-67
2023/08/25 08:49:32;;;;;;;23.02;16.67;;;20.80;99.90;;;;;;5053831;28;20172;-67
2023/08/25 08:51:58;;;;;;;24.23;16.52;;;20.70;99.90;;;;;;5053834;28;20049;-67
2023/08/25 08:54:28;;;;;;;24.00;16.27;;;20.80;99.90;;;;;;5053879;28;20401;-67
2023/08/25 08:56:54;;;;;;;22.33;16.08;;;20.80;99.90;;;;;;5053352;28;20044;-67
2023/08/25 08:59:20;;;;;;;23.60;16.23;;;20.80;99.90;;;;;;5053646;28;20048;-67
2023/08/25 09:01:48;;;;;;;21.85;16.15;;;20.80;99.90;;;;;;5053666;28;20481;-67
2023/08/25 09:04:20;;;;;;;23.58;15.20;;;20.80;99.90;;;;;;5053667;28;20138;-67
2023/08/25 09:06:49;;;;;;;19.92;14.77;;;20.80;99.90;;;;;;5053640;28;20124;-67
2023/08/25 09:09:18;;;;;;;20.67;14.95;;;20.90;99.90;;;;;;5053427;28;20136;-67
2023/08/25 09:11:48;;;;;;;21.60;14.80;;;20.90;99.90;;;;;;5054018;28;20370;-67
2023/08/25 09:14:28;;;;;;;20.98;14.55;;;20.90;99.90;;;;;;5054015;28;20138;-67
2023/08/25 09:17:00;;;;;;;20.60;14.52;;;20.90;99.90;;;;;;5053644;28;20052;-67
2023/08/25 09:19:32;;;;;;;21.40;15.45;;;21.00;99.90;;;;;;5053365;28;20482;-67
2023/08/25 09:22:02;;;;;;;22.92;15.73;;;21.00;99.90;;;;;;5053394;28;20505;-66
2023/08/25 09:24:29;;;;;;;21.67;15.65;;;21.00;99.90;;;;;;5053177;28;20049;-67
2023/08/25 09:26:55;;;;;;;21.65;15.48;;;21.10;99.90;;;;;;5053308;28;20478;-66
2023/08/25 09:29:22;;;;;;;22.92;15.82;;;21.10;99.90;;;;;;5053793;28;20049;-66
2023/08/25 09:31:48;;;;;;;21.17;15.88;;;21.10;99.90;;;;;;5036218;28;20413;-67
2023/08/25 09:34:15;;;;;;;23.52;16.45;;;21.10;99.90;;;;;;5053984;28;20107;-66
2023/08/25 09:36:55;;;;;;;22.58;15.93;;;21.10;99.90;;;;;;5053312;28;20045;-67
2023/08/25 09:39:21;;;;;;;24.50;16.95;;;21.10;99.90;;;;;;5052984;28;20548;-67
2023/08/25 09:41:48;;;;;;;23.00;16.23;;;21.10;99.90;;;;;;5053228;28;20048;-67
2023/08/25 09:44:15;;;;;;;24.02;17.02;;;21.10;99.90;;;;;;5053066;28;20116;-66
2023/08/25 09:46:42;;;;;;;23.98;17.25;;;21.10;99.90;;;;;;5052930;28;20052;-66
2023/08/25 09:49:12;;;;;;;23.35;17.40;;;21.10;99.90;;;;;;5052970;28;20048;-67
2023/08/25 09:51:43;;;;;;;27.02;17.40;;;21.10;99.90;;;;;;5053014;28;20099;-67
2023/08/25 09:54:15;;;;;;;24.88;16.92;;;21.10;99.90;;;;;;5053713;28;20049;-67
2023/08/25 09:56:42;;;;;;;25.35;17.60;;;21.10;99.90;;;;;;5053148;28;20474;-67
2023/08/25 09:59:10;;;;;;;26.27;16.77;;;21.00;99.90;;;;;;5052949;28;20037;-68
2023/08/25 10:01:37;;;;;;;23.75;16.50;;;21.00;99.90;;;;;;5052306;28;20049;-67
2023/08/25 10:04:04;;;;;;;24.55;16.80;;;20.90;99.90;;;;;;5052992;28;20449;-66
2023/08/25 10:06:32;;;;;;;25.35;16.60;;;20.90;99.90;;;;;;5052984;28;20091;-67
2023/08/25 10:09:01;;;;;;;25.08;16.73;;;20.90;99.90;;;;;;5053441;28;20067;-67
2023/08/25 10:11:29;;;;;;;26.02;17.27;;;20.80;99.90;;;;;;5057302;28;20500;-68
2023/08/25 10:13:56;;;;;;;26.05;16.92;;;20.70;99.90;;;;;;5056759;28;20045;-68
2023/08/25 10:16:25;;;;;;;28.40;17.48;;;20.60;99.90;;;;;;5056562;28;20045;-68
2023/08/25 10:18:56;;;;;;;25.42;16.58;;;20.60;99.90;;;;;;5056282;28;20138;-67
2023/08/25 10:21:23;;;;;;;24.25;17.02;;;20.50;99.90;;;;;;5056333;28;20041;-67
2023/08/25 10:23:52;;;;;;;26.00;16.70;;;20.50;99.90;;;;;;5056407;28;20044;-68
2023/08/25 10:26:18;;;;;;;29.35;18.48;;;20.60;99.90;;;;;;5056007;28;20490;-67
2023/08/25 10:28:45;;;;;;;27.63;17.00;;;20.60;99.90;;;;;;5056791;28;20049;-68
2023/08/25 10:31:12;;;;;;;26.17;16.95;;;20.70;99.90;;;;;;5054994;28;20048;-68
2023/08/25 10:33:52;;;;;;;23.63;17.15;;;20.80;99.90;;;;;;5056169;28;20065;-68
2023/08/25 10:36:19;;;;;;;22.55;15.98;;;20.90;99.90;;;;;;5055693;28;20128;-69
2023/08/25 10:38:54;;;;;;;17.15;11.25;;;21.00;99.90;;;;;;5056122;28;20055;-68
2023/08/25 10:41:21;;;;;;;13.65;8.63;;;21.00;99.90;;;;;;5056123;28;20049;-69
2023/08/25 10:43:54;;;;;;;13.57;9.35;;;21.10;99.90;;;;;;5055980;28;20048;-68
2023/08/25 10:46:22;;;;;;;13.38;8.88;;;21.10;99.90;;;;;;5055897;28;20049;-68
2023/08/25 10:48:52;;;;;;;14.70;9.63;;;21.10;99.90;;;;;;5056609;28;20056;-68
2023/08/25 10:51:20;;;;;;;13.98;9.10;;;21.30;99.90;;;;;;5054915;28;20049;-68
2023/08/25 10:53:50;;;;;;;17.00;10.75;;;21.30;99.90;;;;;;5055968;28;20084;-68
2023/08/25 10:56:21;;;;;;;23.42;14.98;;;21.50;99.90;;;;;;5055708;28;20113;-69
2023/08/25 10:59:10;;;;;;;22.50;15.18;;;21.70;99.90;;;;;;5055551;28;20052;-68
2023/08/25 11:01:39;;;;;;;21.90;14.65;;;22.00;99.90;;;;;;5055667;28;20048;-68
2023/08/25 11:04:10;;;;;;;22.23;15.20;;;22.30;99.90;;;;;;5055565;28;20052;-68
2023/08/25 11:06:40;;;;;;;20.55;14.85;;;22.50;99.90;;;;;;5055534;28;20040;-68
2023/08/25 11:09:09;;;;;;;15.77;11.43;;;22.70;99.90;;;;;;5055197;28;20490;-67
2023/08/25 11:11:37;;;;;;;14.98;10.68;;;22.90;99.90;;;;;;5056125;28;20081;-68
2023/08/25 11:14:03;;;;;;;14.40;11.10;;;22.90;99.90;;;;;;5055449;28;20048;-68
2023/08/25 11:16:29;;;;;;;11.68;8.38;;;22.80;99.90;;;;;;5055391;28;20045;-69
2023/08/25 11:18:55;;;;;;;11.25;8.30;;;22.70;99.90;;;;;;5055894;28;20375;-68
2023/08/25 11:21:25;;;;;;;11.57;8.10;;;22.70;99.90;;;;;;5037114;28;20135;-69
2023/08/25 11:23:51;;;;;;;10.57;7.28;;;22.60;99.90;;;;;;5056056;28;20059;-69
2023/08/25 11:26:17;;;;;;;9.27;6.95;;;22.70;99.90;;;;;;5055254;28;20513;-69
2023/08/25 11:28:47;;;;;;;10.63;7.18;;;22.60;99.90;;;;;;5055067;28;20045;-69
2023/08/25 11:31:13;;;;;;;14.43;8.38;;;22.70;99.90;;;;;;5055058;28;20048;-69
2023/08/25 11:33:39;;;;;;;15.80;10.65;;;22.80;99.90;;;;;;5055149;28;20115;-69
2023/08/25 11:36:05;;;;;;;15.55;11.15;;;22.80;99.90;;;;;;5055241;28;20067;-67
2023/08/25 11:38:31;;;;;;;15.55;11.77;;;22.70;99.90;;;;;;5055032;28;20048;-68
2023/08/25 11:40:57;;;;;;;14.90;11.52;;;22.70;99.90;;;;;;5054867;28;20052;-67
2023/08/25 11:43:32;;;;;;;15.60;11.40;;;22.60;99.90;;;;;;5054717;28;20041;-67
2023/08/25 11:45:59;;;;;;;15.67;11.17;;;22.50;99.90;;;;;;5054656;28;20052;-67
2023/08/25 11:48:25;;;;;;;14.45;11.10;;;22.40;99.90;;;;;;5054821;28;20268;-67
2023/08/25 11:50:51;;;;;;;11.98;8.23;;;22.40;99.90;;;;;;5055012;28;20044;-67
2023/08/25 11:53:17;;;;;;;9.35;6.60;;;22.30;99.90;;;;;;5054480;28;20041;-67
2023/08/25 11:56:00;;;;;;;9.30;6.72;;;22.30;99.90;;;;;;5054666;28;20197;-67
2023/08/25 11:58:34;;;;;;;9.38;6.50;;;22.20;99.90;;;;;;5053602;28;20061;-67
2023/08/25 12:01:06;;;;;;;8.00;5.57;;;22.20;99.90;;;;;;5053474;28;20053;-67
2023/08/25 12:03:32;;;;;;;7.00;5.10;;;22.10;99.90;;;;;;5054880;28;20128;-68
2023/08/25 12:05:59;;;;;;;7.13;4.88;;;22.10;99.90;;;;;;5054528;28;20044;-68
2023/08/25 12:08:25;;;;;;;6.43;4.13;;;22.10;99.90;;;;;;5053994;28;20509;-67
2023/08/25 12:10:53;;;;;;;6.00;4.10;;;22.00;99.90;;;;;;5036829;28;20073;-68
2023/08/25 12:13:29;;;;;;;5.78;3.70;;;22.00;99.90;;;;;;5053134;28;20434;-67
2023/08/25 12:15:55;;;;;;;5.10;3.35;;;22.00;99.90;;;;;;5054884;28;20049;-67
2023/08/25 12:18:22;;;;;;;5.25;3.25;;;21.90;99.90;;;;;;5054306;28;20080;-67
2023/08/25 12:20:49;;;;;;;5.13;3.75;;;21.90;99.90;;;;;;5054660;28;20056;-67
2023/08/25 12:23:15;;;;;;;5.45;3.55;;;21.70;99.90;;;;;;5036811;28;20049;-67
2023/08/25 12:25:44;;;;;;;5.03;2.83;;;21.70;99.90;;;;;;5054035;28;20545;-67
2023/08/25 12:28:11;;;;;;;3.40;2.20;;;21.60;99.90;;;;;;5054422;28;20048;-67
2023/08/25 12:30:37;;;;;;;3.33;2.15;;;21.60;99.90;;;;;;5053904;28;20053;-67